Qu Xian, China
Current Conditions -  °F | °C
As of 9:00 PM on Sunday 23 Nov 2014 (Local Time) from ZSHC Reporting Station
Haze Haze  
Wind Chill: 64°   Ceiling: Unl
Heat Index: 64°   Visibility: 1.5mi
Dew Point: 59°   Wind: 4mph
Humidity: 83%   Direction: 80°E
Pressure: 30.03"   Gusts: NA
Location:  28.97°N, 118.87°E
Report Text: ZSHC 231300Z 08002MPS 2500 BR NSC 18/15 Q1017 NOSIG
Loading
Personal Weather Stations






























Interactive Weather Map New forecast layout! Learn more

10-Day Weather Forecast

Advertisements
Track Severe Weather on mobile